Time;durP1;ratioP1;P1;durP2;ratioP2;P2;SDS_P1;SDS_P2;PMS_P1;PMS_P2;Temp;Humidity;BMP_temperature;BMP_pressure;BME280_temperature;BME280_humidity;BME280_pressure;Samples;Min_cycle;Max_cycle;Signal;HPM_P1;HPM_P2
2022/01/19 00:02:43;;;;;;;30.65;7.65;;;;;;;-1.47;97.45;102280.28;5589669;31;34557;-71
2022/01/19 00:05:49;;;;;;;19.37;5.97;;;;;;;-1.59;97.19;102282.38;5590432;31;33922;-71
2022/01/19 00:08:52;;;;;;;16.70;5.70;;;;;;;-1.58;97.61;102279.75;5590419;31;33923;-69
2022/01/19 00:11:55;;;;;;;22.17;5.95;;;;;;;-1.67;98.89;102284.34;5590346;31;34024;-69
2022/01/19 00:14:58;;;;;;;25.23;7.43;;;;;;;-1.55;97.64;102294.44;5590350;31;34298;-69
2022/01/19 00:18:01;;;;;;;28.20;7.60;;;;;;;-1.65;98.75;102286.03;5590420;31;33871;-69
2022/01/19 00:21:04;;;;;;;21.50;6.30;;;;;;;-1.65;98.70;102286.03;5590270;31;33808;-69
2022/01/19 00:24:07;;;;;;;19.65;6.15;;;;;;;-1.57;98.46;102289.25;5590626;31;33948;-69
2022/01/19 00:27:11;;;;;;;16.58;6.43;;;;;;;-1.73;99.17;102295.78;5590070;31;33963;-69
2022/01/19 00:30:14;;;;;;;20.25;6.95;;;;;;;-1.76;99.33;102304.53;5590248;31;34539;-70
2022/01/19 00:33:19;;;;;;;26.55;7.07;;;;;;;-1.90;100.00;102311.00;5590081;31;33939;-70
2022/01/19 00:36:22;;;;;;;21.15;6.70;;;;;;;-1.93;100.00;102305.88;5590259;31;33883;-68
2022/01/19 00:39:30;;;;;;;25.88;6.70;;;;;;;-2.01;100.00;102320.84;5590311;31;34306;-71
2022/01/19 00:42:33;;;;;;;24.10;6.60;;;;;;;-2.17;100.00;102332.53;5590167;31;33908;-70
2022/01/19 00:45:37;;;;;;;27.42;7.20;;;;;;;-2.35;100.00;102332.09;5589611;31;34011;-68
2022/01/19 00:48:59;;;;;;;22.05;6.85;;;;;;;-2.27;100.00;102332.75;5590095;31;33955;-71
2022/01/19 00:52:03;;;;;;;26.37;7.22;;;;;;;-1.98;100.00;102325.94;5590006;31;35200;-70
2022/01/19 00:55:08;;;;;;;27.70;8.38;;;;;;;-2.01;100.00;102319.09;5590078;31;34506;-71
2022/01/19 00:58:11;;;;;;;26.10;9.20;;;;;;;-2.03;100.00;102320.88;5589361;31;34453;-71
2022/01/19 01:01:14;;;;;;;22.77;7.43;;;;;;;-2.04;100.00;102315.72;5589974;31;34330;-71
2022/01/19 01:04:17;;;;;;;24.05;7.25;;;;;;;-2.14;100.00;102309.91;5590038;31;34589;-69
2022/01/19 01:07:20;;;;;;;21.80;7.15;;;;;;;-2.15;100.00;102304.75;5589105;31;34054;-69
2022/01/19 01:10:23;;;;;;;23.35;7.05;;;;;;;-2.11;100.00;102307.22;5589918;31;34575;-68
2022/01/19 01:15:25;;;;;;;35.60;8.52;;;;;;;-2.21;100.00;102301.41;5589777;31;34609;-69
2022/01/19 01:17:10;;;;;;;21.35;6.97;;;;;;;-2.22;100.00;102297.09;5589835;31;33839;-69
2022/01/19 01:20:14;;;;;;;31.20;6.93;;;;;;;-2.23;100.00;102303.19;5589421;31;34310;-68
2022/01/19 01:23:19;;;;;;;17.23;6.53;;;;;;;-2.47;100.00;102289.97;5590072;31;34514;-69
2022/01/19 01:26:21;;;;;;;29.60;7.25;;;;;;;-2.61;100.00;102289.47;5589602;31;34247;-69
2022/01/19 01:29:24;;;;;;;25.33;6.82;;;;;;;-2.25;100.00;102281.59;5589605;31;34715;-69
2022/01/19 01:32:27;;;;;;;23.35;6.28;;;;;;;-2.48;100.00;102268.34;5589612;31;34719;-69
2022/01/19 01:35:30;;;;;;;22.40;6.82;;;;;;;-2.43;100.00;102243.09;5589158;31;34587;-69
2022/01/19 01:38:34;;;;;;;22.15;7.40;;;;;;;-2.30;100.00;102231.47;5589553;31;34327;-70
2022/01/19 01:41:44;;;;;;;20.85;7.55;;;;;;;-2.40;100.00;102222.22;5589959;31;33939;-69
2022/01/19 01:44:51;;;;;;;28.77;8.07;;;;;;;-2.51;100.00;102238.97;5589521;31;33826;-69
2022/01/19 01:48:12;;;;;;;20.55;7.62;;;;;;;-2.72;100.00;102233.44;5589808;31;33981;-69
2022/01/19 01:54:40;;;;;;;23.00;8.02;;;;;;;-3.09;100.00;102238.66;5589439;31;33957;-69
2022/01/19 01:57:43;;;;;;;23.45;7.35;;;;;;;-2.92;100.00;102240.84;5588763;31;33805;-69
2022/01/19 02:00:46;;;;;;;24.20;7.78;;;;;;;-2.74;100.00;102237.81;5575999;31;33866;-69
2022/01/19 02:03:50;;;;;;;23.02;8.23;;;;;;;-2.94;100.00;102221.00;5575875;31;33916;-69
2022/01/19 02:07:20;;;;;;;23.80;8.43;;;;;;;-2.54;100.00;102226.91;5589252;31;33983;-69
2022/01/19 02:10:38;;;;;;;26.37;8.43;;;;;;;-2.79;100.00;102231.88;5589145;31;33811;-69
2022/01/19 02:23:56;;;;;;;31.42;10.63;;;;;;;-2.65;100.00;102209.00;5589008;31;34422;-70
2022/01/19 02:43:21;;;;;;;25.00;8.75;;;;;;;-3.00;100.00;102209.00;5588702;31;34535;-70
2022/01/19 02:46:51;;;;;;;27.15;8.30;;;;;;;-3.07;100.00;102197.09;5588565;31;34648;-70
2022/01/19 02:49:55;;;;;;;33.85;8.82;;;;;;;-2.77;100.00;102192.87;5588611;31;34242;-69
2022/01/19 02:52:58;;;;;;;29.52;9.32;;;;;;;-2.75;100.00;102186.75;5588513;31;33791;-70
2022/01/19 02:56:06;;;;;;;28.75;9.10;;;;;;;-2.83;100.00;102188.69;5588424;31;33905;-69
2022/01/19 02:59:16;;;;;;;23.05;8.52;;;;;;;-2.87;100.00;102188.81;5588474;31;34002;-70
2022/01/19 03:09:08;;;;;;;30.40;9.15;;;;;;;-2.83;100.00;102187.84;5588334;31;33964;-70
2022/01/19 03:12:11;;;;;;;31.55;10.00;;;;;;;-3.03;100.00;102180.53;5590890;31;34563;-70
2022/01/19 03:15:15;;;;;;;36.78;9.77;;;;;;;-3.04;100.00;102171.03;5590902;31;34663;-70
2022/01/19 03:18:17;;;;;;;25.77;8.45;;;;;;;-2.81;100.00;102167.88;5590838;31;34241;-72
2022/01/19 03:21:20;;;;;;;28.05;8.85;;;;;;;-3.10;100.00;102169.44;5577406;31;34494;-69
2022/01/19 03:24:24;;;;;;;28.38;9.10;;;;;;;-3.13;100.00;102163.47;5590935;31;34276;-72
2022/01/19 03:27:27;;;;;;;33.80;9.88;;;;;;;-3.05;100.00;102160.72;5590634;31;34184;-72
2022/01/19 03:30:31;;;;;;;33.47;9.00;;;;;;;-3.22;100.00;102148.13;5590758;31;33943;-72
2022/01/19 03:33:34;;;;;;;27.20;8.65;;;;;;;-3.08;100.00;102153.84;5590568;31;35123;-71
2022/01/19 03:36:37;;;;;;;30.37;9.88;;;;;;;-3.11;100.00;102165.16;5590644;31;34027;-69
2022/01/19 03:39:40;;;;;;;30.83;9.43;;;;;;;-3.18;100.00;102161.00;5591028;31;33555;-71
2022/01/19 03:42:43;;;;;;;25.25;9.23;;;;;;;-3.36;100.00;102156.25;5577235;31;34559;-71
2022/01/19 03:45:52;;;;;;;27.50;9.98;;;;;;;-3.35;100.00;102160.56;5590672;31;33814;-71
2022/01/19 03:48:57;;;;;;;32.47;9.75;;;;;;;-3.29;100.00;102169.94;5577097;31;33906;-71
2022/01/19 03:52:03;;;;;;;35.92;10.77;;;;;;;-3.35;100.00;102176.13;5590671;31;34376;-71
2022/01/19 03:55:06;;;;;;;24.27;9.60;;;;;;;-3.22;100.00;102171.50;5591017;31;33919;-71
2022/01/19 03:58:09;;;;;;;26.05;9.82;;;;;;;-3.25;100.00;102156.00;5590600;31;34026;-71
2022/01/19 04:01:12;;;;;;;33.85;9.80;;;;;;;-3.46;100.00;102157.34;5576814;31;33945;-71
2022/01/19 04:07:28;;;;;;;31.05;9.75;;;;;;;-3.68;100.00;102169.94;5590489;31;34473;-72
2022/01/19 04:10:31;;;;;;;32.63;10.30;;;;;;;-3.76;100.00;102178.78;5590473;31;34585;-71
2022/01/19 04:13:57;;;;;;;38.78;10.45;;;;;;;-3.76;100.00;102171.84;5590256;31;34323;-72
2022/01/19 04:17:06;;;;;;;30.17;9.70;;;;;;;-3.52;100.00;102179.09;5590606;31;34150;-72
2022/01/19 04:20:10;;;;;;;36.03;10.50;;;;;;;-3.26;100.00;102167.25;5589992;31;33929;-71
2022/01/19 04:23:15;;;;;;;26.30;9.82;;;;;;;-3.17;100.00;102169.63;5590149;31;34567;-72
2022/01/19 04:26:17;;;;;;;37.33;10.90;;;;;;;-3.19;100.00;102161.87;5590160;31;33851;-72
2022/01/19 04:29:20;;;;;;;33.10;9.70;;;;;;;-3.29;100.00;102154.38;5590482;31;33894;-72
2022/01/19 04:33:04;;;;;;;25.98;9.68;;;;;;;-3.37;100.00;102156.28;5590590;31;33859;-72
2022/01/19 04:36:06;;;;;;;27.52;10.75;;;;;;;-3.39;100.00;102169.31;5588952;31;33741;-70
2022/01/19 04:44:02;;;;;;;23.60;8.90;;;;;;;-3.40;100.00;102165.00;5590517;31;34576;-72
2022/01/19 05:06:05;;;;;;;34.05;12.13;;;;;;;-3.62;100.00;102132.63;5576952;31;34369;-69
2022/01/19 05:09:27;;;;;;;43.13;13.50;;;;;;;-3.51;100.00;102122.88;5589802;31;33925;-69
2022/01/19 05:15:53;;;;;;;42.95;14.20;;;;;;;-3.73;100.00;102121.69;5590134;31;34243;-69
2022/01/19 05:18:56;;;;;;;32.00;12.55;;;;;;;-3.85;100.00;102120.19;5589696;31;34176;-69
2022/01/19 05:21:59;;;;;;;33.42;12.73;;;;;;;-3.89;100.00;102131.53;5575953;31;33782;-69
2022/01/19 05:25:03;;;;;;;33.38;12.68;;;;;;;-3.92;100.00;102125.56;5589578;31;34535;-69
2022/01/19 05:28:06;;;;;;;41.17;13.18;;;;;;;-3.87;100.00;102123.72;5589424;31;33442;-70
2022/01/19 05:31:09;;;;;;;34.63;13.27;;;;;;;-3.84;100.00;102140.06;5589577;31;34600;-69
2022/01/19 05:34:12;;;;;;;41.03;14.57;;;;;;;-3.77;100.00;102128.66;5588759;31;33876;-69
2022/01/19 05:37:15;;;;;;;37.58;14.55;;;;;;;-3.72;100.00;102123.34;5575821;31;33892;-69
2022/01/19 05:40:18;;;;;;;40.33;13.43;;;;;;;-3.68;100.00;102127.63;5589588;31;33845;-70
2022/01/19 05:43:22;;;;;;;36.95;14.18;;;;;;;-3.77;100.00;102127.78;5589702;31;33864;-69
2022/01/19 05:46:25;;;;;;;38.00;13.23;;;;;;;-3.67;100.00;102124.97;5589655;31;34563;-69
2022/01/19 05:49:28;;;;;;;33.30;12.82;;;;;;;-3.64;100.00;102124.06;5589459;31;34654;-70
2022/01/19 05:52:31;;;;;;;38.42;15.65;;;;;;;-3.76;100.00;102119.13;5575679;31;34006;-70
2022/01/19 05:55:33;;;;;;;37.42;14.93;;;;;;;-3.90;100.00;102126.38;5589378;31;33870;-69
2022/01/19 05:58:36;;;;;;;41.85;15.25;;;;;;;-3.97;100.00;102117.91;5575656;31;33957;-70
2022/01/19 06:01:40;;;;;;;37.85;13.88;;;;;;;-4.17;100.00;102118.31;5589416;31;34097;-69
2022/01/19 06:04:43;;;;;;;45.38;15.52;;;;;;;-4.02;100.00;102128.31;5589241;31;34468;-69
2022/01/19 06:07:48;;;;;;;39.67;15.98;;;;;;;-3.98;100.00;102119.62;5589085;31;33845;-70
2022/01/19 06:10:54;;;;;;;40.22;16.55;;;;;;;-4.02;100.00;102125.72;5588827;31;34422;-69
2022/01/19 06:13:57;;;;;;;42.67;16.15;;;;;;;-4.18;100.00;102131.28;5588936;31;34386;-70
2022/01/19 06:17:01;;;;;;;40.25;15.32;;;;;;;-3.97;100.00;102134.28;5589096;31;33999;-70
2022/01/19 06:20:05;;;;;;;42.30;15.30;;;;;;;-4.10;100.00;102134.56;5589286;31;34372;-70
2022/01/19 06:23:09;;;;;;;36.55;14.65;;;;;;;-4.23;100.00;102121.03;5588812;31;33963;-70
2022/01/19 06:26:13;;;;;;;49.53;17.23;;;;;;;-4.32;100.00;102122.94;5574720;31;34306;-70
2022/01/19 06:29:16;;;;;;;39.30;15.60;;;;;;;-4.41;100.00;102129.16;5588544;31;34252;-70
2022/01/19 06:32:19;;;;;;;38.85;15.50;;;;;;;-4.40;100.00;102125.69;5589098;31;34659;-70
2022/01/19 06:35:22;;;;;;;42.72;14.90;;;;;;;-4.35;100.00;102125.59;5588665;31;33834;-70
2022/01/19 06:38:26;;;;;;;46.00;14.30;;;;;;;-4.32;100.00;102121.22;5588642;31;33882;-70
2022/01/19 06:41:29;;;;;;;42.95;16.33;;;;;;;-4.32;100.00;102115.19;5589305;31;33891;-69
2022/01/19 06:44:32;;;;;;;37.33;13.05;;;;;;;-4.06;100.00;102120.66;5590306;31;34027;-70
2022/01/19 06:47:36;;;;;;;38.60;13.10;;;;;;;-4.18;100.00;102115.75;5590847;31;34443;-69
2022/01/19 06:50:39;;;;;;;31.15;12.15;;;;;;;-4.27;100.00;102114.19;5576836;31;34587;-69
2022/01/19 06:53:42;;;;;;;39.17;13.00;;;;;;;-4.33;100.00;102119.50;5577301;31;34141;-69
2022/01/19 06:56:45;;;;;;;37.17;13.20;;;;;;;-4.28;100.00;102114.22;5590824;31;34530;-69
2022/01/19 06:59:51;;;;;;;36.55;11.93;;;;;;;-4.22;100.00;102109.78;5590854;31;33958;-69
2022/01/19 07:02:55;;;;;;;31.58;13.10;;;;;;;-4.19;100.00;102107.13;5576925;31;34237;-70
2022/01/19 07:06:02;;;;;;;38.67;12.90;;;;;;;-4.17;100.00;102101.91;5590581;31;33805;-69
2022/01/19 07:09:05;;;;;;;36.88;12.55;;;;;;;-4.12;100.00;102100.94;5577256;31;33875;-68
2022/01/19 07:12:09;;;;;;;37.17;12.93;;;;;;;-4.03;100.00;102111.09;5590993;31;34220;-69
2022/01/19 07:15:12;;;;;;;36.40;12.32;;;;;;;-4.02;100.00;102110.19;5590383;31;34531;-69
2022/01/19 07:18:16;;;;;;;37.53;13.18;;;;;;;-3.92;100.00;102105.66;5576859;31;34649;-70
2022/01/19 07:21:19;;;;;;;37.92;11.95;;;;;;;-3.78;100.00;102106.22;5590616;31;34622;-70
2022/01/19 07:24:22;;;;;;;36.30;12.48;;;;;;;-3.71;100.00;102109.50;5591014;31;34380;-71
2022/01/19 07:27:26;;;;;;;35.92;12.50;;;;;;;-3.68;100.00;102097.31;5590232;31;33992;-69
2022/01/19 07:30:29;;;;;;;34.80;12.43;;;;;;;-3.57;100.00;102094.47;5576681;31;34028;-70
2022/01/19 07:33:32;;;;;;;41.72;13.62;;;;;;;-3.50;100.00;102088.28;5590600;31;34257;-70
2022/01/19 07:36:36;;;;;;;33.70;12.80;;;;;;;-3.41;100.00;102098.41;5591040;31;34035;-71
2022/01/19 07:39:39;;;;;;;40.05;12.45;;;;;;;-3.30;100.00;102085.19;5590657;31;34750;-69
2022/01/19 07:42:42;;;;;;;43.17;14.68;;;;;;;-3.32;100.00;102073.97;5590445;31;33906;-69
2022/01/19 07:45:47;;;;;;;41.13;15.43;;;;;;;-3.29;100.00;102064.37;5576904;31;33800;-70
2022/01/19 07:48:50;;;;;;;44.00;15.68;;;;;;;-3.25;100.00;102067.75;5590376;31;34556;-70
2022/01/19 07:51:56;;;;;;;52.60;18.73;;;;;;;-3.18;100.00;102062.34;5590435;31;33875;-71
2022/01/19 07:54:59;;;;;;;46.63;17.12;;;;;;;-3.03;100.00;102068.03;5590228;31;34222;-70
2022/01/19 07:58:03;;;;;;;51.92;18.00;;;;;;;-3.02;100.00;102059.38;5590428;31;34178;-69
2022/01/19 08:01:06;;;;;;;38.08;15.13;;;;;;;-2.98;100.00;102073.97;5590492;31;33894;-68
2022/01/19 08:04:10;;;;;;;41.65;15.35;;;;;;;-2.92;100.00;102069.47;5590343;31;33911;-69
2022/01/19 08:07:13;;;;;;;41.20;16.42;;;;;;;-2.85;100.00;102070.16;5590131;31;33897;-69
2022/01/19 08:10:16;;;;;;;47.90;17.48;;;;;;;-2.81;100.00;102061.41;5590616;31;34528;-69
2022/01/19 08:13:21;;;;;;;41.45;14.90;;;;;;;-2.76;100.00;102065.56;5590528;31;33894;-69
2022/01/19 08:16:26;;;;;;;35.58;14.82;;;;;;;-2.61;100.00;102063.44;5590176;31;34532;-69
2022/01/19 08:19:29;;;;;;;34.20;13.65;;;;;;;-2.61;100.00;102047.88;5590673;31;34599;-70
2022/01/19 08:22:32;;;;;;;39.65;14.30;;;;;;;-2.61;100.00;102050.47;5590205;31;33894;-69
2022/01/19 08:25:38;;;;;;;34.95;13.90;;;;;;;-2.53;100.00;102051.09;5590132;31;32142;-70
2022/01/19 08:28:41;;;;;;;34.35;13.43;;;;;;;-2.46;100.00;102048.25;5590023;31;34018;-71
2022/01/19 08:31:45;;;;;;;38.97;15.07;;;;;;;-2.44;100.00;102051.66;5564047;31;32977;-70
2022/01/19 08:34:49;;;;;;;32.65;14.38;;;;;;;-2.36;100.00;102047.09;5590511;31;32587;-70
2022/01/19 08:37:55;;;;;;;33.70;14.48;;;;;;;-2.27;100.00;102058.97;5590446;31;34401;-70
2022/01/19 08:40:59;;;;;;;34.15;14.20;;;;;;;-2.25;100.00;102057.19;5589929;31;33861;-70
2022/01/19 08:44:02;;;;;;;41.42;14.40;;;;;;;-2.14;100.00;102044.72;5590062;31;34028;-70
2022/01/19 08:47:06;;;;;;;38.05;14.13;;;;;;;-2.08;100.00;102048.88;5590118;31;33853;-70
2022/01/19 08:50:30;;;;;;;32.42;13.27;;;;;;;-2.06;100.00;102045.31;5589813;31;34305;-70
2022/01/19 08:53:34;;;;;;;42.90;14.38;;;;;;;-2.00;100.00;102047.75;5590005;31;34021;-70
2022/01/19 08:56:38;;;;;;;38.35;14.68;;;;;;;-1.99;100.00;102036.44;5576697;31;34593;-70
2022/01/19 08:59:41;;;;;;;46.47;15.55;;;;;;;-1.95;100.00;102037.19;5576122;31;34644;-70
2022/01/19 09:02:44;;;;;;;39.08;14.68;;;;;;;-1.87;100.00;102030.00;5589811;31;34202;-70
2022/01/19 09:05:47;;;;;;;43.67;14.82;;;;;;;-1.77;100.00;102026.22;5589895;31;33826;-69
2022/01/19 09:08:49;;;;;;;33.08;12.57;;;;;;;-1.71;100.00;102027.75;5588544;31;33853;-68
2022/01/19 09:11:52;;;;;;;32.42;12.98;;;;;;;-1.48;99.80;102030.47;5589923;31;34373;-68
2022/01/19 09:14:54;;;;;;;30.27;12.05;;;;;;;-1.31;98.36;102026.37;5589603;31;34258;-68
2022/01/19 09:17:57;;;;;;;30.35;11.95;;;;;;;-1.27;98.57;102028.91;5589173;31;34475;-68
2022/01/19 09:21:00;;;;;;;30.92;12.20;;;;;;;-1.33;98.83;102025.59;5589678;31;35234;-68
2022/01/19 09:24:04;;;;;;;34.17;12.63;;;;;;;-1.16;97.52;102030.22;5589656;31;35204;-68
2022/01/19 09:27:08;;;;;;;35.70;13.60;;;;;;;-1.07;96.71;102026.47;5575645;31;34487;-68
2022/01/19 09:30:16;;;;;;;33.80;12.73;;;;;;;-0.96;96.12;102025.16;5589950;31;34564;-68
2022/01/19 09:33:20;;;;;;;37.90;12.48;;;;;;;-0.99;96.04;102019.22;5589600;31;35173;-68
2022/01/19 09:36:34;;;;;;;33.03;11.98;;;;;;;-1.04;96.08;102015.94;5589393;31;33926;-68
2022/01/19 09:39:37;;;;;;;36.97;12.70;;;;;;;-1.11;97.25;102027.44;5589647;31;34544;-68
2022/01/19 09:42:40;;;;;;;39.40;11.45;;;;;;;-1.15;97.44;102021.50;5589461;31;33934;-68
2022/01/19 09:45:43;;;;;;;35.70;12.23;;;;;;;-1.08;97.05;102001.31;5589078;31;34579;-69
2022/01/19 09:48:46;;;;;;;29.37;11.82;;;;;;;-0.92;97.05;102007.69;5589776;31;34038;-69
2022/01/19 09:51:51;;;;;;;38.08;12.75;;;;;;;-0.87;97.07;101998.78;5589492;31;34451;-68
2022/01/19 09:54:56;;;;;;;44.38;12.45;;;;;;;-0.75;95.49;101999.25;5589339;31;33990;-68
2022/01/19 09:57:58;;;;;;;31.45;12.57;;;;;;;-0.71;94.76;101978.22;5589417;31;34192;-67
2022/01/19 10:01:01;;;;;;;30.50;13.25;;;;;;;-0.55;94.16;101975.91;5589317;31;34446;-67
2022/01/19 10:04:20;;;;;;;32.17;11.93;;;;;;;-0.42;92.51;101969.31;5589000;31;34441;-67
2022/01/19 10:07:24;;;;;;;30.98;11.73;;;;;;;-0.36;90.84;101955.19;5589038;31;34346;-67
2022/01/19 10:10:27;;;;;;;27.15;10.57;;;;;;;-0.26;90.49;101954.78;5589120;31;33865;-67
2022/01/19 10:17:08;;;;;;;32.40;11.52;;;;;;;-0.11;88.95;101929.84;5588980;31;33910;-67
2022/01/19 10:20:22;;;;;;;28.50;10.27;;;;;;;0.05;88.75;101925.69;5588359;31;34039;-68
2022/01/19 10:23:36;;;;;;;30.77;10.35;;;;;;;0.23;87.40;101927.53;5588883;31;33812;-67
2022/01/19 10:26:39;;;;;;;29.65;11.12;;;;;;;0.28;87.52;101909.09;5569051;31;216778;-67
2022/01/19 10:29:42;;;;;;;32.35;11.63;;;;;;;0.35;87.36;101894.84;5588145;31;33939;-67
2022/01/19 10:32:50;;;;;;;30.30;11.07;;;;;;;0.47;86.51;101894.31;5575047;31;33904;-67
2022/01/19 10:35:53;;;;;;;30.37;11.10;;;;;;;0.53;86.06;101888.84;5588745;31;33434;-67
2022/01/19 10:38:56;;;;;;;38.28;12.35;;;;;;;0.63;86.11;101873.63;5588611;31;33593;-67
2022/01/19 10:42:05;;;;;;;30.60;12.68;;;;;;;0.84;84.46;101872.62;5592475;31;33883;-67
2022/01/19 10:45:11;;;;;;;32.40;13.10;;;;;;;0.91;85.62;101866.22;5591043;31;33852;-66
2022/01/19 10:48:37;;;;;;;44.08;14.77;;;;;;;0.98;85.50;101853.72;5577915;31;34591;-70
2022/01/19 10:51:46;;;;;;;34.08;14.15;;;;;;;1.21;84.80;101861.38;5574472;31;34560;-67
2022/01/19 10:54:49;;;;;;;32.47;13.90;;;;;;;1.24;84.39;101841.16;5588124;31;34157;-67
2022/01/19 10:57:54;;;;;;;37.20;15.00;;;;;;;1.27;84.50;101834.91;5588095;31;34044;-67
2022/01/19 11:00:56;;;;;;;53.38;14.55;;;;;;;1.36;83.87;101842.31;5588283;31;35048;-67
2022/01/19 11:04:23;;;;;;;37.63;13.55;;;;;;;1.52;82.46;101830.19;5588426;31;33837;-67
2022/01/19 11:07:26;;;;;;;32.78;14.18;;;;;;;1.42;82.77;101825.47;5588223;31;34088;-67
2022/01/19 11:10:31;;;;;;;33.67;14.13;;;;;;;1.56;82.08;101820.44;5587910;31;33944;-67
2022/01/19 11:13:42;;;;;;;36.42;13.93;;;;;;;1.61;81.74;101815.81;5588050;31;34174;-67
2022/01/19 11:16:45;;;;;;;32.35;14.02;;;;;;;1.83;80.16;101800.78;5587830;31;33857;-67
2022/01/19 11:19:49;;;;;;;36.28;13.07;;;;;;;1.93;79.77;101798.53;5587952;31;34728;-67
2022/01/19 11:23:28;;;;;;;37.13;13.70;;;;;;;2.00;77.82;101789.44;5587770;31;34598;-67
2022/01/19 11:26:31;;;;;;;33.40;13.73;;;;;;;2.00;78.78;101782.44;5587758;31;34604;-68
2022/01/19 11:29:39;;;;;;;35.88;13.52;;;;;;;2.14;78.32;101779.09;5587979;31;34024;-67
2022/01/19 11:33:03;;;;;;;32.35;14.18;;;;;;;2.21;77.35;101783.09;5589852;31;34496;-68
2022/01/19 11:36:30;;;;;;;39.72;15.10;;;;;;;2.31;76.77;101773.84;5590345;31;34455;-67
2022/01/19 11:39:33;;;;;;;40.08;14.57;;;;;;;2.11;77.67;101768.78;5590810;31;33936;-67
2022/01/19 11:42:35;;;;;;;51.53;15.38;;;;;;;2.29;77.17;101752.09;5590416;31;33846;-66
2022/01/19 11:45:40;;;;;;;36.83;14.07;;;;;;;2.25;77.71;101747.12;5590591;31;33777;-69
2022/01/19 11:48:44;;;;;;;40.28;13.60;;;;;;;2.47;76.49;101740.62;5576668;31;33794;-67
2022/01/19 11:51:55;;;;;;;36.75;13.13;;;;;;;2.54;76.77;101734.16;5591068;31;33890;-65
2022/01/19 11:55:13;;;;;;;;;;;;;;;2.33;77.41;101731.81;5591581;31;33766;-68
2022/01/19 11:58:21;;;;;;;28.85;12.60;;;;;;;2.56;78.60;101723.59;5590580;31;34471;-67
2022/01/19 12:01:24;;;;;;;27.55;11.45;;;;;;;2.79;76.97;101712.69;5590233;31;34400;-67
2022/01/19 12:04:37;;;;;;;34.80;12.45;;;;;;;2.67;76.87;101705.50;5590180;31;33913;-67
2022/01/19 12:07:41;;;;;;;34.38;12.25;;;;;;;2.71;77.09;101701.75;5590139;31;34656;-67
2022/01/19 12:10:49;;;;;;;26.15;10.60;;;;;;;2.86;76.82;101693.06;5590194;31;34629;-69
2022/01/19 12:17:25;;;;;;;23.35;9.55;;;;;;;3.05;75.53;101684.97;5590190;31;34004;-67
2022/01/19 12:21:04;;;;;;;29.50;10.05;;;;;;;3.59;74.08;101694.03;5589873;31;33999;-68
2022/01/19 12:24:32;;;;;;;30.12;10.05;;;;;;;3.47;72.51;101677.28;5491345;32;34087;-67
2022/01/19 12:27:37;;;;;;;24.48;9.98;;;;;;;3.56;72.69;101669.78;5478485;32;33877;-68
2022/01/19 12:30:40;;;;;;;26.95;9.77;;;;;;;3.81;72.09;101678.72;5491612;32;33779;-67
2022/01/19 12:34:02;;;;;;;22.05;8.95;;;;;;;4.54;68.71;101675.94;5491339;32;33975;-68
2022/01/19 12:37:04;;;;;;;25.20;8.82;;;;;;;4.28;69.82;101646.87;5491160;32;33674;-69
2022/01/19 12:40:21;;;;;;;19.98;8.07;;;;;;;4.22;69.21;101657.78;5491601;32;33871;-68
2022/01/19 12:43:35;;;;;;;25.60;7.75;;;;;;;4.21;68.52;101642.94;5491166;32;34205;-68
2022/01/19 12:46:38;;;;;;;19.70;7.40;;;;;;;4.03;68.83;101645.88;5491212;32;33878;-69
2022/01/19 12:49:46;;;;;;;22.13;7.82;;;;;;;4.18;68.04;101626.53;5490577;32;33797;-68
2022/01/19 12:52:52;;;;;;;22.50;7.62;;;;;;;4.66;66.31;101638.34;5491208;32;35035;-68
2022/01/19 12:55:59;;;;;;;22.55;8.00;;;;;;;4.54;67.17;101620.75;5491268;32;34212;-68
2022/01/19 12:59:07;;;;;;;17.17;6.50;;;;;;;4.89;67.08;101632.41;5578307;31;34238;-68
2022/01/19 13:02:14;;;;;;;17.23;5.90;;;;;;;5.24;63.99;101616.94;5589896;31;34026;-68
2022/01/19 13:05:19;;;;;;;20.67;7.05;;;;;;;5.85;61.67;101624.13;5576088;31;34616;-68
2022/01/19 13:08:32;;;;;;;17.65;6.03;;;;;;;5.63;61.38;101614.22;5589926;31;33893;-68
2022/01/19 13:14:38;;;;;;;16.83;6.62;;;;;;;5.48;61.80;101601.25;5589582;31;34645;-68
2022/01/19 13:17:43;;;;;;;17.10;6.57;;;;;;;5.57;62.17;101590.94;5589251;31;33983;-68
2022/01/19 13:20:55;;;;;;;17.60;6.87;;;;;;;5.46;62.77;101584.75;5589514;31;33872;-68
2022/01/19 13:24:01;;;;;;;18.58;7.53;;;;;;;5.38;63.21;101582.63;5589671;31;34497;-68
2022/01/19 13:27:06;;;;;;;14.32;6.75;;;;;;;5.42;62.96;101578.84;5589608;31;33825;-69
2022/01/19 13:30:13;;;;;;;19.70;6.50;;;;;;;5.25;63.68;101592.31;5589459;31;35270;-68
2022/01/19 13:33:16;;;;;;;17.02;5.60;;;;;;;4.82;65.62;101579.41;5589557;31;33610;-67
2022/01/19 13:36:27;;;;;;;17.70;6.40;;;;;;;4.91;65.72;101577.97;5589490;31;33844;-68
2022/01/19 13:39:33;;;;;;;22.45;6.05;;;;;;;4.85;66.24;101567.84;5575674;31;34718;-67
2022/01/19 13:42:43;;;;;;;19.48;6.20;;;;;;;4.41;67.81;101559.41;5589562;31;33942;-67
2022/01/19 13:48:55;;;;;;;15.48;6.12;;;;;;;4.24;68.70;101556.09;5589357;31;33991;-67
2022/01/19 13:51:58;;;;;;;13.98;6.00;;;;;;;4.08;68.96;101560.62;5589366;31;35186;-67
2022/01/19 13:55:01;;;;;;;17.33;5.68;;;;;;;4.04;69.56;101550.41;5588520;31;34581;-67
2022/01/19 13:58:17;;;;;;;15.35;5.22;;;;;;;4.11;69.16;101554.34;5589221;31;33910;-67
2022/01/19 14:01:22;;;;;;;17.15;5.93;;;;;;;4.18;69.04;101545.13;5589457;31;35083;-67
2022/01/19 14:04:28;;;;;;;17.40;6.00;;;;;;;4.26;68.56;101542.88;5589209;31;34456;-66
2022/01/19 14:07:31;;;;;;;21.00;6.00;;;;;;;4.21;69.36;101537.06;5589213;31;33823;-67
2022/01/19 14:10:39;;;;;;;13.30;5.50;;;;;;;4.07;69.93;101540.56;5589150;31;33891;-67
2022/01/19 14:13:42;;;;;;;13.90;6.10;;;;;;;4.01;69.71;101542.75;5588350;31;34108;-67
2022/01/19 14:16:47;;;;;;;20.20;6.43;;;;;;;3.82;70.70;101529.94;5588926;31;33969;-67
2022/01/19 14:19:50;;;;;;;18.23;6.28;;;;;;;3.65;71.07;101540.62;5589019;31;34674;-67
2022/01/19 14:23:09;;;;;;;21.25;5.62;;;;;;;3.66;71.24;101537.09;5588545;31;35131;-67
2022/01/19 14:26:12;;;;;;;19.90;6.50;;;;;;;3.54;72.11;101524.72;5588678;31;35167;-67
2022/01/19 14:29:15;;;;;;;17.85;6.55;;;;;;;3.41;72.40;101520.22;5588550;31;34182;-67
2022/01/19 14:32:17;;;;;;;20.62;6.82;;;;;;;3.24;72.60;101517.81;5588616;31;34547;-68
2022/01/19 14:35:34;;;;;;;15.05;5.97;;;;;;;3.20;72.94;101505.78;5588837;31;34560;-67
2022/01/19 14:38:38;;;;;;;12.65;5.87;;;;;;;3.16;73.52;101503.47;5574923;31;35090;-67
2022/01/19 14:41:43;;;;;;;17.62;6.53;;;;;;;3.20;73.34;101502.31;5588608;31;34135;-67
2022/01/19 14:44:58;;;;;;;17.05;6.12;;;;;;;3.09;74.57;101492.50;5588478;31;34558;-67
2022/01/19 14:48:12;;;;;;;16.87;5.82;;;;;;;3.04;75.05;101479.69;5588404;31;34287;-67
2022/01/19 14:51:30;;;;;;;17.92;5.93;;;;;;;3.09;75.87;101481.19;5588839;31;33831;-67
2022/01/19 14:54:39;;;;;;;19.20;5.53;;;;;;;3.07;76.25;101481.28;5588406;31;34223;-67
2022/01/19 14:57:41;;;;;;;15.00;5.55;;;;;;;3.01;76.51;101485.09;5588275;31;34536;-67
2022/01/19 15:00:44;;;;;;;19.35;5.82;;;;;;;2.98;77.03;101479.19;5588374;31;34161;-67
2022/01/19 15:03:47;;;;;;;20.23;6.57;;;;;;;2.81;78.02;101482.81;5587991;31;33975;-68
2022/01/19 15:06:50;;;;;;;15.65;6.18;;;;;;;2.91;78.01;101472.62;5576744;31;33910;-68
2022/01/19 15:09:53;;;;;;;21.95;6.28;;;;;;;2.85;78.73;101470.41;5576754;31;33831;-68
2022/01/19 15:12:56;;;;;;;18.45;6.40;;;;;;;2.68;79.69;101467.91;5590462;31;33916;-68
2022/01/19 15:15:59;;;;;;;15.00;7.00;;;;;;;2.49;80.36;101462.94;5590535;31;34106;-67
2022/01/19 15:19:03;;;;;;;24.10;6.95;;;;;;;2.41;81.58;101459.94;5590680;31;33951;-68
2022/01/19 15:22:06;;;;;;;17.62;6.43;;;;;;;2.30;82.04;101454.47;5590962;31;34031;-68
2022/01/19 15:25:10;;;;;;;16.87;6.70;;;;;;;2.24;82.53;101449.56;5590555;31;34225;-68
2022/01/19 15:28:12;;;;;;;16.37;6.82;;;;;;;2.18;83.55;101441.13;5590728;31;33889;-67
2022/01/19 15:31:16;;;;;;;18.33;7.53;;;;;;;2.14;83.33;101438.78;5590254;31;34232;-68